Time;durP1;ratioP1;P1;durP2;ratioP2;P2;SDS_P1;SDS_P2;PMS_P1;PMS_P2;Temp;Humidity;BMP_temperature;BMP_pressure;BME280_temperature;BME280_humidity;BME280_pressure;Samples;Min_cycle;Max_cycle;Signal;HPM_P1;HPM_P2
2021/03/09 00:02:19;;;;;;;15.27;13.63;;;-0.50;99.90;;;;;;5078677;28;20445;-77
2021/03/09 00:04:45;;;;;;;15.90;13.80;;;-0.60;99.90;;;;;;5058322;28;20445;-78
2021/03/09 00:07:11;;;;;;;17.83;15.57;;;-0.70;99.90;;;;;;5064405;28;20846;-77
2021/03/09 00:09:38;;;;;;;16.77;14.57;;;-0.70;99.90;;;;;;5065211;28;20436;-78
2021/03/09 00:12:06;;;;;;;18.37;15.60;;;-0.70;99.90;;;;;;5079599;28;20466;-78
2021/03/09 00:14:32;;;;;;;15.77;14.07;;;-0.80;99.90;;;;;;5057432;28;20803;-77
2021/03/09 00:16:58;;;;;;;15.63;13.97;;;-0.80;99.90;;;;;;5065929;28;20438;-78
2021/03/09 00:19:25;;;;;;;16.90;15.20;;;-0.90;99.90;;;;;;5065295;28;20531;-78
2021/03/09 00:21:51;;;;;;;15.60;13.97;;;-0.90;99.90;;;;;;5064332;28;21009;-78
2021/03/09 00:24:17;;;;;;;17.77;15.87;;;-0.90;99.90;;;;;;5068964;28;20433;-77
2021/03/09 00:26:44;;;;;;;16.83;14.40;;;-0.90;99.90;;;;;;5059999;28;20484;-77
2021/03/09 00:29:11;;;;;;;16.13;14.53;;;-0.90;99.90;;;;;;5064046;28;20446;-78
2021/03/09 00:31:37;;;;;;;18.07;15.50;;;-1.00;99.90;;;;;;5064852;28;20472;-78
2021/03/09 00:34:03;;;;;;;16.13;14.43;;;-1.10;99.90;;;;;;5065122;28;20440;-78
2021/03/09 00:36:30;;;;;;;15.87;13.60;;;-1.10;99.90;;;;;;5061829;28;20434;-78
2021/03/09 00:38:56;;;;;;;15.80;14.10;;;-1.10;99.90;;;;;;5063450;28;20453;-77
2021/03/09 00:41:22;;;;;;;15.70;14.20;;;-1.10;99.90;;;;;;5075621;28;20501;-78
2021/03/09 00:43:49;;;;;;;15.10;13.60;;;-1.00;99.90;;;;;;5068198;28;20814;-78
2021/03/09 00:46:16;;;;;;;17.17;14.33;;;-1.00;99.90;;;;;;5078320;28;20446;-78
2021/03/09 00:48:42;;;;;;;16.50;14.43;;;-1.10;99.90;;;;;;5065402;28;20496;-78
2021/03/09 00:51:09;;;;;;;15.93;14.07;;;-1.10;99.90;;;;;;5063824;28;20457;-78
2021/03/09 00:53:36;;;;;;;16.67;14.60;;;-1.10;99.90;;;;;;5057348;28;20425;-78
2021/03/09 00:56:02;;;;;;;16.90;15.10;;;-1.20;99.90;;;;;;5062680;28;20452;-78
2021/03/09 00:58:29;;;;;;;17.40;14.80;;;-1.20;99.90;;;;;;5064790;28;20430;-78
2021/03/09 01:00:55;;;;;;;20.53;15.27;;;-1.20;99.90;;;;;;5065308;28;20880;-78
2021/03/09 01:03:23;;;;;;;18.33;15.57;;;-1.20;99.90;;;;;;5058923;28;20457;-77
2021/03/09 01:05:49;;;;;;;16.60;14.27;;;-1.20;99.90;;;;;;5067236;28;20498;-78
2021/03/09 01:08:15;;;;;;;18.40;15.93;;;-1.20;99.90;;;;;;5060987;28;20444;-78
2021/03/09 01:10:42;;;;;;;16.37;14.67;;;-1.10;99.90;;;;;;5078839;28;21025;-78
2021/03/09 01:13:09;;;;;;;17.07;14.17;;;-1.20;99.90;;;;;;5064533;28;20430;-78
2021/03/09 01:15:35;;;;;;;15.77;14.17;;;-1.10;99.90;;;;;;5082603;28;20456;-78
2021/03/09 01:18:01;;;;;;;17.13;15.17;;;-1.20;99.90;;;;;;5064079;28;20926;-78
2021/03/09 01:20:29;;;;;;;16.83;14.77;;;-1.20;99.90;;;;;;5064944;28;20465;-78
2021/03/09 01:22:55;;;;;;;20.47;16.20;;;-1.20;99.90;;;;;;5062842;28;20829;-78
2021/03/09 01:25:21;;;;;;;16.77;14.87;;;-1.30;99.90;;;;;;5059380;28;20434;-78
2021/03/09 01:27:47;;;;;;;18.63;14.63;;;-1.30;99.90;;;;;;5066184;28;20862;-78
2021/03/09 01:30:16;;;;;;;18.00;14.50;;;-1.30;99.90;;;;;;5077724;28;20492;-77
2021/03/09 01:32:43;;;;;;;17.30;15.37;;;-1.40;99.90;;;;;;5080209;28;20461;-78
2021/03/09 01:35:10;;;;;;;18.73;16.00;;;-1.40;99.90;;;;;;5063094;28;20449;-78
2021/03/09 01:37:37;;;;;;;16.63;14.67;;;-1.40;99.90;;;;;;5056807;28;20495;-78
2021/03/09 01:40:06;;;;;;;16.53;14.80;;;-1.50;99.90;;;;;;5063710;28;21004;-78
2021/03/09 01:42:32;;;;;;;15.57;13.97;;;-1.50;99.90;;;;;;5060504;28;20434;-78
2021/03/09 01:44:58;;;;;;;20.07;14.93;;;-1.50;99.90;;;;;;5063254;28;20452;-77
2021/03/09 01:47:25;;;;;;;17.40;14.37;;;-1.50;99.90;;;;;;5058863;28;20981;-78
2021/03/09 01:49:51;;;;;;;16.63;14.50;;;-1.50;99.90;;;;;;5076032;28;21047;-77
2021/03/09 01:52:17;;;;;;;19.37;15.90;;;-1.60;99.90;;;;;;5063986;28;20458;-78
2021/03/09 01:54:44;;;;;;;17.87;14.03;;;-1.50;99.90;;;;;;5063021;28;20472;-78
2021/03/09 01:57:11;;;;;;;16.83;14.87;;;-1.50;99.90;;;;;;5065045;28;20453;-77
2021/03/09 01:59:39;;;;;;;17.67;14.93;;;-1.50;99.90;;;;;;5063326;28;20473;-77
2021/03/09 02:02:06;;;;;;;18.90;14.43;;;-1.50;99.90;;;;;;5063735;28;20455;-77
2021/03/09 02:04:32;;;;;;;18.90;15.80;;;-1.50;99.90;;;;;;5063692;28;20803;-77
2021/03/09 02:06:58;;;;;;;15.67;14.07;;;-1.50;99.90;;;;;;5075211;28;20450;-77
2021/03/09 02:09:25;;;;;;;17.50;14.67;;;-1.60;99.90;;;;;;5064627;28;20449;-78
2021/03/09 02:12:01;;;;;;;18.03;15.83;;;-1.70;99.90;;;;;;5066606;28;20465;-78
2021/03/09 02:14:33;;;;;;;17.97;15.00;;;-1.70;99.90;;;;;;5066015;28;20440;-76
2021/03/09 02:17:07;;;;;;;17.40;15.13;;;-1.60;99.90;;;;;;5065635;28;20437;-79
2021/03/09 02:20:02;;;;;;;16.90;14.30;;;-1.60;99.90;;;;;;5053151;28;20510;-78
2021/03/09 02:22:42;;;;;;;15.70;13.97;;;-1.70;99.90;;;;;;5076880;28;20460;-78
2021/03/09 02:25:32;;;;;;;14.33;12.83;;;-1.80;99.90;;;;;;5059811;28;20437;-78
2021/03/09 02:28:12;;;;;;;17.30;15.13;;;-1.80;99.90;;;;;;5066800;28;20491;-78
2021/03/09 02:30:41;;;;;;;17.90;13.80;;;-1.80;99.90;;;;;;5054372;28;20473;-77
2021/03/09 02:33:13;;;;;;;15.53;13.87;;;-1.80;99.90;;;;;;5060328;28;20795;-78
2021/03/09 02:35:45;;;;;;;15.50;13.93;;;-1.90;99.90;;;;;;5061900;28;20438;-78
2021/03/09 02:38:17;;;;;;;16.70;14.90;;;-1.80;99.90;;;;;;5063895;28;20434;-77
2021/03/09 02:40:44;;;;;;;16.67;13.97;;;-1.70;99.90;;;;;;5064574;28;20472;-77
2021/03/09 02:43:15;;;;;;;15.63;14.07;;;-1.70;99.90;;;;;;5062136;28;20446;-78
2021/03/09 02:45:47;;;;;;;17.33;14.77;;;-1.80;99.90;;;;;;5060481;28;20437;-78
2021/03/09 02:48:15;;;;;;;20.57;16.00;;;-1.80;99.90;;;;;;5080301;28;20460;-78
2021/03/09 02:50:46;;;;;;;18.57;15.87;;;-1.90;99.90;;;;;;5059653;28;20449;-79
2021/03/09 02:53:14;;;;;;;18.23;16.03;;;-1.90;99.90;;;;;;5064623;28;20491;-77
2021/03/09 02:55:43;;;;;;;19.17;15.57;;;-1.90;99.90;;;;;;5059011;28;21003;-79
2021/03/09 02:58:14;;;;;;;20.80;15.53;;;-2.00;99.90;;;;;;5058544;28;20452;-79
2021/03/09 03:00:42;;;;;;;17.87;15.87;;;-2.00;99.90;;;;;;5077461;28;20477;-78
2021/03/09 03:03:10;;;;;;;18.93;15.50;;;-2.10;99.90;;;;;;5061555;28;20445;-79
2021/03/09 03:05:37;;;;;;;18.40;14.77;;;-2.10;99.90;;;;;;5063381;28;20453;-78
2021/03/09 03:08:05;;;;;;;22.00;16.40;;;-2.20;99.90;;;;;;5061019;28;20453;-77
2021/03/09 03:10:33;;;;;;;20.87;16.43;;;-2.20;99.90;;;;;;5063239;28;20557;-78
2021/03/09 03:13:00;;;;;;;24.97;17.97;;;-2.20;99.90;;;;;;5061653;28;20436;-77
2021/03/09 03:15:28;;;;;;;21.90;15.83;;;-2.10;99.90;;;;;;5056060;28;20449;-78
2021/03/09 03:17:56;;;;;;;23.27;17.27;;;-2.20;99.90;;;;;;5081326;28;20459;-78
2021/03/09 03:20:22;;;;;;;23.30;17.87;;;-2.10;99.90;;;;;;5060145;28;20489;-79
2021/03/09 03:22:51;;;;;;;19.53;17.13;;;-2.10;99.90;;;;;;5061513;28;20434;-78
2021/03/09 03:25:18;;;;;;;24.37;18.07;;;-2.20;99.90;;;;;;5060682;28;20446;-78
2021/03/09 03:27:47;;;;;;;21.70;17.17;;;-2.20;99.90;;;;;;5060357;28;20442;-78
2021/03/09 03:30:16;;;;;;;23.10;18.40;;;-2.20;99.90;;;;;;5062445;28;20436;-77
2021/03/09 03:32:42;;;;;;;23.97;17.87;;;-2.20;99.90;;;;;;5077963;28;20983;-78
2021/03/09 03:35:12;;;;;;;20.47;17.37;;;-2.30;99.90;;;;;;5057864;28;21055;-78
2021/03/09 03:37:39;;;;;;;24.70;18.07;;;-2.30;99.90;;;;;;5061016;28;20453;-78
2021/03/09 03:40:08;;;;;;;25.63;19.40;;;-2.30;99.90;;;;;;5058891;28;20466;-80
2021/03/09 03:42:35;;;;;;;21.80;17.63;;;-2.20;99.90;;;;;;5067521;28;20495;-78
2021/03/09 03:45:02;;;;;;;24.40;18.90;;;-2.30;99.90;;;;;;5067378;28;20450;-76
2021/03/09 03:47:28;;;;;;;20.73;17.17;;;-2.30;99.90;;;;;;5084157;28;20447;-75
2021/03/09 03:49:55;;;;;;;25.27;17.53;;;-2.20;99.90;;;;;;5059633;28;20474;-75
2021/03/09 03:52:32;;;;;;;22.27;17.37;;;-2.20;99.90;;;;;;5071144;28;20506;-76
2021/03/09 03:55:05;;;;;;;24.87;19.80;;;-2.30;99.90;;;;;;5078543;28;20454;-76
2021/03/09 03:57:36;;;;;;;23.77;18.63;;;-2.30;99.90;;;;;;5051071;28;20428;-76
2021/03/09 04:00:08;;;;;;;21.97;19.03;;;-2.20;99.90;;;;;;5051284;28;20496;-77
2021/03/09 04:02:36;;;;;;;24.27;18.87;;;-2.30;99.90;;;;;;5047915;28;20501;-77
2021/03/09 04:05:05;;;;;;;27.73;18.70;;;-2.30;99.90;;;;;;5050926;28;20446;-77
2021/03/09 04:07:33;;;;;;;22.27;18.23;;;-2.20;99.90;;;;;;5051476;28;20488;-75
2021/03/09 04:10:00;;;;;;;23.40;17.80;;;-2.20;99.90;;;;;;5048765;28;20433;-76
2021/03/09 04:12:30;;;;;;;23.40;17.40;;;-2.20;99.90;;;;;;5050320;28;20527;-76
2021/03/09 04:14:58;;;;;;;23.40;18.53;;;-2.30;99.90;;;;;;5063026;28;20459;-76
2021/03/09 04:17:26;;;;;;;20.03;17.67;;;-2.30;99.90;;;;;;5074027;28;20457;-76
2021/03/09 04:19:54;;;;;;;20.83;18.63;;;-2.30;99.90;;;;;;5059450;28;20565;-75
2021/03/09 04:22:22;;;;;;;23.53;19.40;;;-2.20;99.90;;;;;;5060228;28;20432;-76
2021/03/09 04:24:50;;;;;;;25.00;18.77;;;-2.30;99.90;;;;;;5058183;28;20464;-76
2021/03/09 04:27:21;;;;;;;19.43;17.33;;;-2.30;99.90;;;;;;5059283;28;20450;-75
2021/03/09 04:29:50;;;;;;;23.47;18.37;;;-2.30;99.90;;;;;;5073335;28;20493;-75
2021/03/09 04:32:17;;;;;;;23.47;18.97;;;-2.40;99.90;;;;;;5057873;28;20482;-75
2021/03/09 04:34:44;;;;;;;23.07;18.37;;;-2.40;99.90;;;;;;5056236;28;20875;-74
2021/03/09 04:37:12;;;;;;;22.13;18.30;;;-2.30;99.90;;;;;;5070016;28;20451;-75
2021/03/09 04:39:38;;;;;;;20.17;17.00;;;-2.30;99.90;;;;;;5058151;28;20477;-74
2021/03/09 04:42:06;;;;;;;23.53;19.13;;;-2.30;99.90;;;;;;5057986;28;20462;-76
2021/03/09 04:44:32;;;;;;;20.93;18.83;;;-2.30;99.90;;;;;;5060639;28;20437;-75
2021/03/09 04:46:59;;;;;;;21.10;17.50;;;-2.20;99.90;;;;;;5059345;28;20437;-75
2021/03/09 04:49:25;;;;;;;22.73;17.97;;;-2.20;99.90;;;;;;5062161;28;20429;-75
2021/03/09 04:51:52;;;;;;;23.70;17.87;;;-2.20;99.90;;;;;;5083082;28;20473;-76
2021/03/09 04:54:18;;;;;;;20.83;17.93;;;-2.20;99.90;;;;;;5058643;28;20856;-75
2021/03/09 04:56:44;;;;;;;21.10;16.77;;;-2.30;99.90;;;;;;5060872;28;20451;-75
2021/03/09 04:59:12;;;;;;;20.90;16.63;;;-2.40;99.90;;;;;;5063396;28;20445;-78
2021/03/09 05:01:38;;;;;;;19.40;17.03;;;-2.40;99.90;;;;;;5062059;28;20839;-75
2021/03/09 05:04:05;;;;;;;21.43;16.50;;;-2.40;99.90;;;;;;5063434;28;20843;-75
2021/03/09 05:06:31;;;;;;;18.97;16.70;;;-2.50;99.90;;;;;;5062706;28;20431;-76
2021/03/09 05:08:57;;;;;;;23.87;18.40;;;-2.50;99.90;;;;;;5060830;28;20460;-76
2021/03/09 05:11:24;;;;;;;29.57;18.90;;;-2.50;99.90;;;;;;5062241;28;20482;-76
2021/03/09 05:13:50;;;;;;;22.63;17.57;;;-2.50;99.90;;;;;;5063818;28;20428;-77
2021/03/09 05:16:17;;;;;;;24.37;18.50;;;-2.40;99.90;;;;;;5059474;28;20434;-76
2021/03/09 05:18:43;;;;;;;20.83;16.87;;;-2.40;99.90;;;;;;5077466;28;20453;-76
2021/03/09 05:21:10;;;;;;;22.40;18.40;;;-2.40;99.90;;;;;;5061767;28;20470;-75
2021/03/09 05:23:36;;;;;;;20.87;18.00;;;-2.40;99.90;;;;;;5065339;28;20429;-76
2021/03/09 05:26:02;;;;;;;20.70;18.53;;;-2.50;99.90;;;;;;5062476;28;20461;-75
2021/03/09 05:28:28;;;;;;;22.77;18.30;;;-2.40;99.90;;;;;;5063728;28;20441;-76
2021/03/09 05:30:55;;;;;;;20.63;16.93;;;-2.40;99.90;;;;;;5061727;28;20539;-76
2021/03/09 05:33:24;;;;;;;25.43;18.67;;;-2.40;99.90;;;;;;5055603;28;20467;-76
2021/03/09 05:35:50;;;;;;;20.47;17.10;;;-2.50;99.90;;;;;;5065548;28;20433;-76
2021/03/09 05:38:16;;;;;;;22.07;18.40;;;-2.40;99.90;;;;;;5075946;28;20497;-76
2021/03/09 05:40:43;;;;;;;22.53;17.93;;;-2.40;99.90;;;;;;5061824;28;20446;-77
2021/03/09 05:43:11;;;;;;;25.37;19.33;;;-2.40;99.90;;;;;;5062533;28;20435;-78
2021/03/09 05:45:38;;;;;;;22.93;18.27;;;-2.40;99.90;;;;;;5061426;28;20461;-81
2021/03/09 05:48:04;;;;;;;22.03;18.20;;;-2.40;99.90;;;;;;5061244;28;20444;-78
2021/03/09 05:50:32;;;;;;;20.10;17.93;;;-2.30;99.90;;;;;;5058021;28;20477;-78
2021/03/09 05:52:58;;;;;;;25.73;19.40;;;-2.30;99.90;;;;;;5063144;28;20433;-78
2021/03/09 05:55:24;;;;;;;22.97;19.07;;;-2.30;99.90;;;;;;5059051;28;20440;-79
2021/03/09 05:57:51;;;;;;;23.50;18.33;;;-2.30;99.90;;;;;;5061341;28;20445;-78
2021/03/09 06:00:18;;;;;;;24.93;19.43;;;-2.30;99.90;;;;;;5063720;28;21003;-79
2021/03/09 06:02:45;;;;;;;22.10;17.90;;;-2.20;99.90;;;;;;5064770;28;20436;-78
2021/03/09 06:05:12;;;;;;;23.60;19.50;;;-2.20;99.90;;;;;;5064039;28;20442;-78
2021/03/09 06:07:39;;;;;;;25.90;19.07;;;-2.10;99.90;;;;;;5063191;28;20643;-78
2021/03/09 06:10:18;;;;;;;23.33;18.67;;;-2.00;99.90;;;;;;5069412;28;20482;-78
2021/03/09 06:12:44;;;;;;;23.63;18.17;;;-2.00;99.90;;;;;;5081850;28;20515;-78
2021/03/09 06:15:11;;;;;;;26.73;17.90;;;-2.00;99.90;;;;;;5063976;28;20453;-78
2021/03/09 06:17:39;;;;;;;21.87;18.90;;;-1.90;99.90;;;;;;5065865;28;20433;-78
2021/03/09 06:20:07;;;;;;;20.23;17.67;;;-1.80;99.90;;;;;;5065975;28;21001;-78
2021/03/09 06:22:41;;;;;;;22.00;18.10;;;-1.80;99.90;;;;;;5062050;28;20433;-79
2021/03/09 06:25:09;;;;;;;25.33;18.30;;;-1.70;99.90;;;;;;5059859;28;20426;-78
2021/03/09 06:27:35;;;;;;;23.67;18.10;;;-1.70;99.90;;;;;;5077383;28;20465;-78
2021/03/09 06:30:02;;;;;;;22.77;18.57;;;-1.60;99.90;;;;;;5061612;28;20528;-78
2021/03/09 06:32:40;;;;;;;24.87;18.50;;;-1.60;99.90;;;;;;5065601;28;20429;-78
2021/03/09 06:35:24;;;;;;;24.77;18.57;;;-1.50;99.90;;;;;;5062895;28;20517;-78
2021/03/09 06:37:52;;;;;;;24.40;18.97;;;-1.30;99.90;;;;;;5060616;28;20450;-79
2021/03/09 06:40:19;;;;;;;23.40;18.63;;;-1.20;99.90;;;;;;5063784;28;20457;-78
2021/03/09 06:42:45;;;;;;;23.10;19.13;;;-1.10;99.90;;;;;;5060382;28;20457;-78
2021/03/09 06:45:13;;;;;;;24.27;19.03;;;-1.00;99.90;;;;;;5057963;28;20445;-79
2021/03/09 06:47:41;;;;;;;20.40;17.47;;;-0.90;99.90;;;;;;5066538;28;20532;-78
2021/03/09 06:50:11;;;;;;;22.43;18.07;;;-0.70;99.90;;;;;;5075448;28;20473;-79
2021/03/09 06:52:38;;;;;;;21.10;17.30;;;-0.50;99.90;;;;;;5063380;28;20483;-78
2021/03/09 06:55:08;;;;;;;20.77;18.53;;;-0.40;99.90;;;;;;5062388;28;20843;-78
2021/03/09 06:57:34;;;;;;;19.57;17.67;;;-0.30;99.90;;;;;;5078012;28;20545;-78
2021/03/09 07:00:01;;;;;;;21.77;18.13;;;-0.20;99.90;;;;;;5060835;28;20452;-78
2021/03/09 07:02:28;;;;;;;20.30;16.97;;;-0.10;99.90;;;;;;5062844;28;20437;-78
2021/03/09 07:05:03;;;;;;;21.67;18.03;;;0.10;99.90;;;;;;5063477;28;20440;-79
2021/03/09 07:07:30;;;;;;;21.03;17.17;;;0.20;99.90;;;;;;5059153;28;20845;-79
2021/03/09 07:09:59;;;;;;;19.50;16.73;;;0.30;99.90;;;;;;5058925;28;20478;-78
2021/03/09 07:12:27;;;;;;;19.70;17.60;;;0.40;99.90;;;;;;5065891;28;20445;-78
2021/03/09 07:14:54;;;;;;;20.07;17.17;;;0.50;99.90;;;;;;5080488;28;20481;-79
2021/03/09 07:17:22;;;;;;;22.37;18.57;;;0.50;99.90;;;;;;5065324;28;20845;-79
2021/03/09 07:19:49;;;;;;;19.23;17.00;;;0.60;99.90;;;;;;5073969;28;20432;-79
2021/03/09 07:22:18;;;;;;;18.83;16.50;;;0.80;99.90;;;;;;5074895;28;20465;-78
2021/03/09 07:24:53;;;;;;;24.23;17.70;;;0.90;99.90;;;;;;5066897;28;20488;-79
2021/03/09 07:27:25;;;;;;;20.70;17.47;;;1.00;99.90;;;;;;5064442;28;20448;-79
2021/03/09 07:29:57;;;;;;;19.43;17.33;;;1.10;99.90;;;;;;5060310;28;20468;-79
2021/03/09 07:32:28;;;;;;;20.27;16.53;;;1.40;99.90;;;;;;5062618;28;20433;-79
2021/03/09 07:34:55;;;;;;;18.97;16.23;;;1.70;99.90;;;;;;5063935;28;20986;-79
2021/03/09 07:37:22;;;;;;;19.77;17.67;;;2.00;99.90;;;;;;5059145;28;20434;-79
2021/03/09 07:39:49;;;;;;;19.37;16.40;;;2.20;99.90;;;;;;5060283;28;20939;-79
2021/03/09 07:42:17;;;;;;;21.13;17.77;;;2.30;99.90;;;;;;5071854;28;20454;-79
2021/03/09 07:44:45;;;;;;;19.57;17.10;;;2.40;99.90;;;;;;5078777;28;20450;-78
2021/03/09 07:47:14;;;;;;;21.20;17.57;;;2.30;99.90;;;;;;5061078;28;20454;-79
2021/03/09 07:49:43;;;;;;;21.03;16.73;;;2.40;99.90;;;;;;5061131;28;21270;-78
2021/03/09 07:52:12;;;;;;;20.70;17.37;;;2.40;99.90;;;;;;5061703;28;20515;-78
2021/03/09 07:54:39;;;;;;;18.00;15.43;;;2.50;99.90;;;;;;5058521;28;20828;-79
2021/03/09 07:57:20;;;;;;;19.07;16.93;;;2.60;99.90;;;;;;5063700;28;20470;-78
2021/03/09 08:00:05;;;;;;;18.07;15.97;;;2.80;99.90;;;;;;5062494;28;20484;-79
2021/03/09 08:02:54;;;;;;;19.60;16.70;;;3.00;99.90;;;;;;5051641;28;20442;-79
2021/03/09 08:05:22;;;;;;;18.27;16.37;;;3.20;99.90;;;;;;5057016;28;20429;-79
2021/03/09 08:07:54;;;;;;;21.77;16.13;;;3.40;99.90;;;;;;5064693;28;20443;-79
2021/03/09 08:10:46;;;;;;;19.27;17.17;;;3.60;99.90;;;;;;5059786;28;20481;-79
2021/03/09 08:13:23;;;;;;;21.60;16.73;;;4.00;99.90;;;;;;5075034;28;20441;-79
2021/03/09 08:15:50;;;;;;;18.00;12.47;;;4.10;99.90;;;;;;5058584;28;20978;-79
2021/03/09 08:18:43;;;;;;;18.73;12.87;;;4.30;99.90;;;;;;5063559;28;20844;-79
2021/03/09 08:21:09;;;;;;;20.07;13.10;;;4.30;99.90;;;;;;5074849;28;20458;-79
2021/03/09 08:23:55;;;;;;;19.33;13.80;;;4.40;99.90;;;;;;5061517;28;20450;-79
2021/03/09 08:26:47;;;;;;;15.40;12.53;;;4.40;99.90;;;;;;5062178;28;20260;-78
2021/03/09 08:29:33;;;;;;;14.83;11.63;;;4.30;99.90;;;;;;5059992;28;20218;-79
2021/03/09 08:32:37;;;;;;;14.87;11.23;;;4.30;99.90;;;;;;5061555;28;20219;-79
2021/03/09 08:35:37;;;;;;;15.53;12.97;;;4.40;99.90;;;;;;5061955;28;20274;-79
2021/03/09 08:38:16;;;;;;;15.60;12.43;;;4.50;99.90;;;;;;5058747;28;20199;-79
2021/03/09 08:41:05;;;;;;;17.80;13.83;;;4.50;99.90;;;;;;5059582;28;20268;-78
2021/03/09 08:43:33;;;;;;;15.30;12.40;;;4.50;99.90;;;;;;5056790;28;20199;-79
2021/03/09 08:46:00;;;;;;;17.17;13.50;;;4.60;99.90;;;;;;5065747;28;20202;-79
2021/03/09 08:49:01;;;;;;;17.13;12.70;;;4.70;99.90;;;;;;5065030;28;20203;-79
2021/03/09 08:51:49;;;;;;;15.87;13.73;;;4.70;99.90;;;;;;5066542;28;20211;-79
2021/03/09 08:54:30;;;;;;;19.17;12.83;;;5.00;99.90;;;;;;5065527;28;20190;-79
2021/03/09 08:56:59;;;;;;;15.83;11.93;;;5.30;99.90;;;;;;5060905;28;20199;-79
2021/03/09 08:59:26;;;;;;;17.43;14.90;;;5.50;99.90;;;;;;5067699;28;20204;-79
2021/03/09 09:01:54;;;;;;;16.53;13.77;;;5.70;99.90;;;;;;5064101;28;20210;-79
2021/03/09 09:04:20;;;;;;;20.30;16.00;;;6.00;99.90;;;;;;5075968;28;20200;-79
2021/03/09 09:06:47;;;;;;;18.37;16.50;;;5.90;99.90;;;;;;5068325;28;20186;-79
2021/03/09 09:09:30;;;;;;;17.57;15.53;;;6.00;99.90;;;;;;5061208;28;20192;-79
2021/03/09 09:11:56;;;;;;;18.37;15.00;;;6.30;99.90;;;;;;5061050;28;20219;-79
2021/03/09 09:14:23;;;;;;;17.23;15.47;;;6.40;99.90;;;;;;5063435;28;20574;-79
2021/03/09 09:16:52;;;;;;;18.53;16.73;;;6.40;99.90;;;;;;5064002;28;20191;-79
2021/03/09 09:19:19;;;;;;;18.50;16.57;;;6.40;99.90;;;;;;5066373;28;20203;-78
2021/03/09 09:21:47;;;;;;;18.30;16.30;;;6.30;99.90;;;;;;5064471;28;20215;-80
2021/03/09 09:24:21;;;;;;;17.70;15.53;;;6.30;99.90;;;;;;5065157;28;20205;-79
2021/03/09 09:26:59;;;;;;;15.20;12.13;;;6.40;99.90;;;;;;5062060;28;20198;-79
2021/03/09 09:29:26;;;;;;;14.17;10.13;;;6.70;99.90;;;;;;5079455;28;20193;-79
2021/03/09 09:32:01;;;;;;;14.03;10.07;;;6.80;99.90;;;;;;5063326;28;20227;-79
2021/03/09 09:34:34;;;;;;;13.50;11.47;;;6.90;99.90;;;;;;5060133;28;20196;-78
2021/03/09 09:37:12;;;;;;;14.67;11.07;;;7.00;99.90;;;;;;5059028;28;20200;-79
2021/03/09 09:39:39;;;;;;;12.93;10.47;;;7.10;99.90;;;;;;5057623;28;20250;-80
2021/03/09 09:42:14;;;;;;;14.87;12.00;;;7.20;99.90;;;;;;5075974;28;20987;-79
2021/03/09 09:44:41;;;;;;;14.70;11.70;;;7.40;99.90;;;;;;5062746;28;20193;-79
2021/03/09 09:47:09;;;;;;;14.57;11.23;;;7.40;99.90;;;;;;5065399;28;20248;-79
2021/03/09 09:49:37;;;;;;;17.60;15.60;;;7.30;99.90;;;;;;5065919;28;20279;-79
2021/03/09 09:52:11;;;;;;;17.23;15.43;;;7.30;99.90;;;;;;5063165;28;20291;-78
2021/03/09 09:54:37;;;;;;;15.63;14.10;;;7.40;99.90;;;;;;5060973;28;20736;-80
2021/03/09 09:57:10;;;;;;;11.83;9.83;;;7.50;99.90;;;;;;5056859;28;20195;-79
2021/03/09 09:59:37;;;;;;;15.20;11.40;;;7.70;99.90;;;;;;5055718;28;20202;-79
2021/03/09 10:02:18;;;;;;;13.93;10.30;;;7.50;99.90;;;;;;5076348;28;20263;-79
2021/03/09 10:04:44;;;;;;;14.77;10.57;;;7.60;99.90;;;;;;5075108;28;20205;-79
2021/03/09 10:07:19;;;;;;;15.70;11.50;;;7.60;99.90;;;;;;5062327;28;20218;-79
2021/03/09 10:10:03;;;;;;;15.10;10.73;;;7.80;99.90;;;;;;5067750;28;20232;-79
2021/03/09 10:12:36;;;;;;;12.57;9.73;;;7.80;99.90;;;;;;5071105;28;20210;-80
2021/03/09 10:15:06;;;;;;;17.40;14.70;;;7.90;99.90;;;;;;5058185;28;20196;-79
2021/03/09 10:17:32;;;;;;;14.70;11.97;;;7.90;99.90;;;;;;5061596;28;20199;-79
2021/03/09 10:19:59;;;;;;;14.97;12.87;;;7.70;99.90;;;;;;5061529;28;20206;-79
2021/03/09 10:22:26;;;;;;;13.60;11.27;;;7.80;99.90;;;;;;5064905;28;20206;-79
2021/03/09 10:24:53;;;;;;;13.53;11.53;;;7.80;99.90;;;;;;5057264;28;20206;-80
2021/03/09 10:27:23;;;;;;;12.03;10.80;;;7.90;99.90;;;;;;5064114;28;20205;-79
2021/03/09 10:29:54;;;;;;;16.20;14.40;;;8.10;99.90;;;;;;5061214;28;20266;-79
2021/03/09 10:32:21;;;;;;;15.83;14.33;;;8.20;99.90;;;;;;5106565;22;20228;-85
2021/03/09 10:34:52;;;;;;;15.20;13.70;;;8.10;99.90;;;;;;5075248;28;20202;-85
2021/03/09 10:37:19;;;;;;;15.00;13.60;;;8.20;99.90;;;;;;5083995;28;20219;-84
2021/03/09 10:39:57;;;;;;;17.40;13.83;;;8.30;99.90;;;;;;5102870;28;20198;-84
2021/03/09 10:42:27;;;;;;;15.97;14.37;;;8.40;99.90;;;;;;5084132;28;20209;-84
2021/03/09 10:44:54;;;;;;;14.33;13.00;;;8.50;99.90;;;;;;5082899;28;20671;-84
2021/03/09 10:47:22;;;;;;;15.57;14.07;;;8.50;99.90;;;;;;5078880;28;20206;-84
2021/03/09 10:49:48;;;;;;;15.20;13.70;;;8.60;99.90;;;;;;5087213;28;20725;-85
2021/03/09 10:52:14;;;;;;;15.30;13.80;;;8.60;99.90;;;;;;5079087;28;20217;-85
2021/03/09 10:54:41;;;;;;;15.93;14.23;;;8.50;99.90;;;;;;5086247;28;20200;-85
2021/03/09 10:57:09;;;;;;;15.30;13.80;;;8.40;99.90;;;;;;5082295;28;20204;-84
2021/03/09 10:59:36;;;;;;;14.80;13.30;;;8.40;99.90;;;;;;5084725;28;20557;-85
2021/03/09 11:02:02;;;;;;;14.40;13.07;;;8.60;99.90;;;;;;5083251;28;20230;-85
2021/03/09 11:04:29;;;;;;;14.80;13.33;;;8.60;99.90;;;;;;5083978;28;20208;-85
2021/03/09 11:06:56;;;;;;;13.70;12.30;;;8.80;99.90;;;;;;5083872;28;20620;-85
2021/03/09 11:09:22;;;;;;;15.67;14.13;;;8.90;99.90;;;;;;5085111;28;20201;-85
2021/03/09 11:11:48;;;;;;;14.67;13.17;;;8.60;99.90;;;;;;5100489;28;20201;-84
2021/03/09 11:14:15;;;;;;;14.90;13.40;;;8.60;99.90;;;;;;5084908;28;20193;-85
2021/03/09 11:16:41;;;;;;;14.83;13.33;;;8.70;99.90;;;;;;5083165;28;20212;-85
2021/03/09 11:19:07;;;;;;;13.23;12.03;;;8.60;99.90;;;;;;5099235;28;20186;-84
2021/03/09 11:21:35;;;;;;;14.90;13.27;;;8.60;99.90;;;;;;5082222;28;20225;-85
2021/03/09 11:24:01;;;;;;;13.90;12.50;;;8.60;99.90;;;;;;5083218;28;20200;-85
2021/03/09 11:26:29;;;;;;;14.23;12.73;;;8.70;99.90;;;;;;5085890;28;20197;-85
2021/03/09 11:28:56;;;;;;;14.30;12.90;;;8.60;99.90;;;;;;5101227;28;20186;-84
2021/03/09 11:31:23;;;;;;;13.60;12.30;;;8.80;99.90;;;;;;5080688;28;20221;-85
2021/03/09 11:33:50;;;;;;;13.30;12.10;;;8.90;99.90;;;;;;5098681;28;20197;-85
2021/03/09 11:36:16;;;;;;;12.40;11.30;;;8.90;99.90;;;;;;5083282;28;20197;-85
2021/03/09 11:38:45;;;;;;;13.07;11.63;;;9.10;99.90;;;;;;5101309;28;20200;-85
2021/03/09 11:41:13;;;;;;;12.73;11.57;;;9.10;99.90;;;;;;5101754;28;20271;-84
2021/03/09 11:43:40;;;;;;;13.07;11.97;;;9.30;99.90;;;;;;5085261;28;20202;-85
2021/03/09 11:46:06;;;;;;;11.47;10.53;;;9.40;99.90;;;;;;5084799;28;20198;-85
2021/03/09 11:48:33;;;;;;;12.20;11.13;;;9.50;99.90;;;;;;5079460;28;20197;-85
2021/03/09 11:51:00;;;;;;;12.10;11.00;;;9.60;99.90;;;;;;5105482;28;20205;-85
2021/03/09 11:53:26;;;;;;;13.30;12.10;;;9.70;99.90;;;;;;5074760;28;20202;-85
2021/03/09 11:55:54;;;;;;;11.87;10.83;;;9.60;99.90;;;;;;5100893;28;20194;-85
2021/03/09 11:58:20;;;;;;;13.17;11.80;;;9.50;99.90;;;;;;5084040;28;20198;-85
2021/03/09 12:00:46;;;;;;;12.57;11.47;;;9.60;99.90;;;;;;5082843;28;20220;-85
2021/03/09 12:03:13;;;;;;;12.30;11.20;;;9.80;99.90;;;;;;5101496;28;20703;-85
2021/03/09 12:05:39;;;;;;;13.80;12.60;;;9.50;99.90;;;;;;5100666;28;20194;-85
2021/03/09 12:08:06;;;;;;;12.93;11.73;;;9.40;99.90;;;;;;5086438;28;20254;-85
2021/03/09 12:10:33;;;;;;;13.17;11.83;;;9.40;99.90;;;;;;5080731;28;20189;-85
2021/03/09 12:13:00;;;;;;;13.23;12.10;;;9.30;99.90;;;;;;5079116;28;20197;-85
2021/03/09 12:15:26;;;;;;;13.13;11.83;;;9.20;99.90;;;;;;5085151;28;20441;-85
2021/03/09 12:17:53;;;;;;;13.70;12.40;;;9.20;99.90;;;;;;5082514;28;20202;-84
2021/03/09 12:20:19;;;;;;;12.13;11.03;;;9.20;99.90;;;;;;5103121;28;20212;-86
2021/03/09 12:22:46;;;;;;;13.07;11.77;;;9.20;99.90;;;;;;5083822;28;20229;-85
2021/03/09 12:25:13;;;;;;;14.07;12.67;;;9.40;99.90;;;;;;5083440;28;20258;-85
2021/03/09 12:27:39;;;;;;;13.50;12.30;;;9.20;99.90;;;;;;5082312;28;20202;-85
2021/03/09 12:30:08;;;;;;;12.03;10.93;;;9.30;99.90;;;;;;5085812;28;20196;-85
2021/03/09 12:32:35;;;;;;;11.70;10.70;;;9.50;99.90;;;;;;5098372;28;20622;-85
2021/03/09 12:35:02;;;;;;;12.50;11.33;;;9.80;99.90;;;;;;5104162;28;20255;-83
2021/03/09 12:37:28;;;;;;;13.83;12.63;;;9.80;99.90;;;;;;5100595;28;20185;-84
2021/03/09 12:39:54;;;;;;;13.07;11.90;;;9.40;99.90;;;;;;5100563;28;20666;-85
2021/03/09 12:42:21;;;;;;;12.60;11.60;;;9.50;99.90;;;;;;5103302;28;20240;-85